createdAt,value
2024-05-09T00:00:38.977Z,102977.78
2024-05-09T00:03:08.249Z,102976.28
2024-05-09T00:05:36.382Z,102976.63
2024-05-09T00:08:03.840Z,102974.72
2024-05-09T00:13:21.104Z,102976.50
2024-05-09T00:15:47.637Z,102971.09
2024-05-09T00:18:14.423Z,102968.41
2024-05-09T00:20:41.593Z,102980.25
2024-05-09T00:23:13.589Z,102977.75
2024-05-09T00:25:43.010Z,102977.13
2024-05-09T00:28:09.788Z,102972.63
2024-05-09T00:30:37.364Z,102960.81
2024-05-09T00:33:06.271Z,102965.19
2024-05-09T00:35:34.270Z,102961.66
2024-05-09T00:38:01.237Z,102961.75
2024-05-09T00:40:38.781Z,102965.34
2024-05-09T00:43:08.023Z,102959.16
2024-05-09T00:45:35.596Z,102955.69
2024-05-09T00:48:06.204Z,102951.22
2024-05-09T00:50:36.879Z,102950.38
2024-05-09T00:53:06.087Z,102946.00
2024-05-09T00:55:37.483Z,102952.50
2024-05-09T00:58:05.151Z,102954.31
2024-05-09T01:00:38.432Z,102952.72
2024-05-09T01:03:08.257Z,102952.88
2024-05-09T01:05:35.702Z,102956.50
2024-05-09T01:08:03.175Z,102954.75
2024-05-09T01:10:56.291Z,102953.91
2024-05-09T01:13:22.891Z,102954.94
2024-05-09T01:15:50.131Z,102949.66
2024-05-09T01:18:17.132Z,102949.69
2024-05-09T01:20:45.325Z,102952.47
2024-05-09T01:23:14.740Z,102946.28
2024-05-09T01:25:43.410Z,102947.25
2024-05-09T01:28:10.033Z,102952.69
2024-05-09T01:30:37.798Z,102944.53
2024-05-09T01:33:07.281Z,102945.41
2024-05-09T01:35:35.732Z,102942.81
2024-05-09T01:38:02.626Z,102934.78
2024-05-09T01:40:36.824Z,102934.81
2024-05-09T01:43:06.212Z,102932.13
2024-05-09T01:45:32.942Z,102936.78
2024-05-09T01:47:59.863Z,102937.81
2024-05-09T01:50:37.273Z,102940.53
2024-05-09T01:53:08.106Z,102932.56
2024-05-09T01:55:34.813Z,102934.41
2024-05-09T01:58:01.402Z,102937.16
2024-05-09T02:00:37.840Z,102939.31
2024-05-09T02:03:15.262Z,102944.66
2024-05-09T02:05:45.544Z,102943.78
2024-05-09T02:08:18.156Z,102942.88
2024-05-09T02:10:46.753Z,102941.22
2024-05-09T02:13:14.159Z,102935.28
2024-05-09T02:15:40.668Z,102938.72
2024-05-09T02:18:08.566Z,102942.28
2024-05-09T02:20:38.136Z,102937.75
2024-05-09T02:23:06.177Z,102937.75
2024-05-09T02:25:33.278Z,102939.66
2024-05-09T02:27:59.932Z,102939.69
2024-05-09T02:30:36.549Z,102939.75
2024-05-09T02:33:08.068Z,102934.47
2024-05-09T02:35:35.376Z,102930.78
2024-05-09T02:38:02.115Z,102933.50
2024-05-09T02:40:36.145Z,102937.13
2024-05-09T02:43:06.048Z,102933.53
2024-05-09T02:45:32.878Z,102929.94
2024-05-09T02:47:59.781Z,102928.28
2024-05-09T02:50:34.266Z,102924.78
2024-05-09T02:53:05.699Z,102930.22
2024-05-09T02:55:32.714Z,102927.56
2024-05-09T02:57:59.450Z,102920.41
2024-05-09T03:00:34.684Z,102927.50
2024-05-09T03:03:07.920Z,102929.34
2024-05-09T03:05:35.892Z,102923.28
2024-05-09T03:08:02.620Z,102919.81
2024-05-09T03:13:20.312Z,102922.81
2024-05-09T03:15:46.900Z,102927.31
2024-05-09T03:18:13.918Z,102918.31
2024-05-09T03:20:40.806Z,102922.78
2024-05-09T03:23:09.233Z,102921.13
2024-05-09T03:25:36.681Z,102916.75
2024-05-09T03:28:03.611Z,102915.84
2024-05-09T03:30:39.194Z,102914.09
2024-05-09T03:33:19.998Z,102912.25
2024-05-09T03:35:48.157Z,102914.00
2024-05-09T03:38:15.205Z,102915.88
2024-05-09T03:40:50.103Z,102923.06
2024-05-09T03:43:17.879Z,102913.22
2024-05-09T03:45:45.564Z,102913.22
2024-05-09T03:48:12.692Z,102923.19
2024-05-09T03:50:39.513Z,102917.09
2024-05-09T03:53:07.126Z,102913.66
2024-05-09T03:55:33.664Z,102920.63
2024-05-09T03:58:00.248Z,102917.88
2024-05-09T04:00:35.142Z,102913.44
2024-05-09T04:03:08.212Z,102917.31
2024-05-09T04:05:39.372Z,102919.94
2024-05-09T04:08:06.281Z,102924.38
2024-05-09T04:10:34.610Z,102926.16
2024-05-09T04:13:02.767Z,102920.81
2024-05-09T04:15:29.686Z,102924.41
2024-05-09T04:17:56.492Z,102928.88
2024-05-09T04:20:33.804Z,102926.28
2024-05-09T04:23:06.351Z,102923.63
2024-05-09T04:25:33.383Z,102929.69
2024-05-09T04:27:59.980Z,102924.25
2024-05-09T04:30:35.969Z,102920.88
2024-05-09T04:33:07.692Z,102924.56
2024-05-09T04:35:35.880Z,102920.91
2024-05-09T04:38:02.694Z,102930.59
2024-05-09T04:40:34.069Z,102927.88
2024-05-09T04:43:03.957Z,102930.41
2024-05-09T04:45:30.612Z,102934.03
2024-05-09T04:47:57.498Z,102933.91
2024-05-09T04:50:33.802Z,102926.63
2024-05-09T04:53:04.637Z,102931.84
2024-05-09T04:55:32.923Z,102934.44
2024-05-09T04:57:59.515Z,102942.41
2024-05-09T05:00:34.179Z,102934.31
2024-05-09T05:03:08.428Z,102941.28
2024-05-09T05:05:40.076Z,102938.50
2024-05-09T05:08:17.426Z,102943.75
2024-05-09T05:10:45.374Z,102939.13
2024-05-09T05:13:25.021Z,102940.91
2024-05-09T05:15:55.785Z,102945.31
2024-05-09T05:18:24.244Z,102948.81
2024-05-09T05:20:51.500Z,102950.56
2024-05-09T05:23:19.968Z,102953.09
2024-05-09T05:25:48.176Z,102960.22
2024-05-09T05:28:18.031Z,102956.53
2024-05-09T05:30:44.951Z,102954.56
2024-05-09T05:33:13.599Z,102949.81
2024-05-09T05:35:41.687Z,102948.63
2024-05-09T05:38:09.173Z,102954.59
2024-05-09T05:40:39.916Z,102952.56
2024-05-09T05:43:09.762Z,102949.69
2024-05-09T05:45:36.654Z,102952.09
2024-05-09T05:48:05.446Z,102946.44
2024-05-09T05:50:36.374Z,102957.00
2024-05-09T05:53:09.366Z,102954.88
2024-05-09T05:55:37.391Z,102952.03
2024-05-09T05:58:04.202Z,102958.00
2024-05-09T06:00:38.108Z,102955.13
2024-05-09T06:03:07.425Z,102948.66
2024-05-09T06:05:35.187Z,102943.94
2024-05-09T06:08:01.984Z,102955.28
2024-05-09T06:13:20.488Z,102942.16
2024-05-09T06:15:47.032Z,102938.25
2024-05-09T06:18:14.026Z,102944.41
2024-05-09T06:20:42.890Z,102930.72
2024-05-09T06:23:10.663Z,102941.25
2024-05-09T06:25:37.733Z,102938.38
2024-05-09T06:28:04.839Z,102940.88
2024-05-09T06:30:40.090Z,102931.75
2024-05-09T06:33:10.749Z,102936.00
2024-05-09T06:35:39.195Z,102939.34
2024-05-09T06:38:09.249Z,102931.00
2024-05-09T06:40:38.973Z,102931.59
2024-05-09T06:43:18.707Z,102926.94
2024-05-09T06:45:48.460Z,102918.78
2024-05-09T06:48:19.482Z,102932.91
2024-05-09T06:50:46.865Z,102931.66
2024-05-09T06:53:14.881Z,102926.91
2024-05-09T06:55:41.892Z,102933.81
2024-05-09T06:58:09.119Z,102930.78
2024-05-09T07:00:39.660Z,102924.16
2024-05-09T07:03:15.551Z,102926.53
2024-05-09T07:05:44.820Z,102924.59
2024-05-09T07:08:12.200Z,102926.91
2024-05-09T07:13:29.871Z,102921.88
2024-05-09T07:15:56.435Z,102920.81
2024-05-09T07:18:23.182Z,102918.53
2024-05-09T07:20:50.687Z,102919.84
2024-05-09T07:23:18.704Z,102916.03
2024-05-09T07:25:45.580Z,102920.25
2024-05-09T07:28:14.790Z,102921.78
2024-05-09T07:30:41.989Z,102913.19
2024-05-09T07:33:08.730Z,102921.88
2024-05-09T07:35:35.667Z,102918.75
2024-05-09T07:38:02.426Z,102910.97
2024-05-09T07:40:35.432Z,102908.88
2024-05-09T07:43:13.144Z,102904.09
2024-05-09T07:45:49.387Z,102908.91
2024-05-09T07:53:38.947Z,102898.66
2024-05-09T07:56:07.814Z,102895.63
2024-05-09T07:58:34.745Z,102900.56
2024-05-09T08:01:02.725Z,102904.72
2024-05-09T08:03:29.382Z,102901.56
2024-05-09T08:05:56.192Z,102900.88
2024-05-09T08:08:23.301Z,102899.75
2024-05-09T08:10:50.983Z,102899.59
2024-05-09T08:13:17.793Z,102895.34
2024-05-09T08:15:44.735Z,102891.41
2024-05-09T08:18:11.920Z,102887.06
2024-05-09T08:20:41.121Z,102887.13
2024-05-09T08:23:07.731Z,102887.13
2024-05-09T08:25:34.257Z,102882.13
2024-05-09T08:28:00.990Z,102891.06
2024-05-09T08:30:33.678Z,102887.91
2024-05-09T08:33:04.486Z,102885.88
2024-05-09T08:35:31.762Z,102878.97
2024-05-09T08:37:58.495Z,102888.19
2024-05-09T08:40:32.890Z,102875.03
2024-05-09T08:43:02.973Z,102883.81
2024-05-09T08:45:31.346Z,102880.13
2024-05-09T08:48:01.388Z,102879.88
2024-05-09T08:50:36.181Z,102884.97
2024-05-09T08:53:05.866Z,102876.50
2024-05-09T08:55:32.747Z,102876.88
2024-05-09T08:58:01.402Z,102870.84
2024-05-09T09:00:35.872Z,102875.09
2024-05-09T09:03:06.512Z,102876.97
2024-05-09T09:05:38.359Z,102875.47
2024-05-09T09:08:06.800Z,102879.06
2024-05-09T09:10:36.459Z,102877.22
2024-05-09T09:13:05.005Z,102877.69
2024-05-09T09:15:32.251Z,102875.78
2024-05-09T09:18:00.181Z,102873.53
2024-05-09T09:20:34.188Z,102871.31
2024-05-09T09:23:04.031Z,102862.25
2024-05-09T09:25:30.734Z,102861.91
2024-05-09T09:27:58.286Z,102864.34
2024-05-09T09:30:35.012Z,102857.00
2024-05-09T09:33:05.380Z,102849.38
2024-05-09T09:35:32.653Z,102855.53
2024-05-09T09:38:02.994Z,102858.31
2024-05-09T09:40:41.108Z,102852.16
2024-05-09T09:43:18.539Z,102849.94
2024-05-09T09:45:46.941Z,102849.53
2024-05-09T09:48:15.265Z,102841.94
2024-05-09T09:50:42.063Z,102843.78
2024-05-09T09:53:10.228Z,102845.66
2024-05-09T09:55:37.658Z,102842.81
2024-05-09T09:58:05.940Z,102845.84
2024-05-09T10:00:34.480Z,102840.78
2024-05-09T10:03:01.868Z,102837.38
2024-05-09T10:05:30.126Z,102831.59
2024-05-09T10:07:58.718Z,102836.28
2024-05-09T10:10:32.194Z,102826.16
2024-05-09T10:13:06.632Z,102826.28
2024-05-09T10:15:50.710Z,102832.28
2024-05-09T10:18:22.630Z,102824.78
2024-05-09T10:20:49.601Z,102823.63
2024-05-09T10:23:26.717Z,102822.75
2024-05-09T10:26:04.334Z,102818.28
2024-05-09T10:28:31.842Z,102815.16
2024-05-09T10:31:08.359Z,102814.72
2024-05-09T10:33:49.551Z,102814.09
2024-05-09T10:36:20.555Z,102819.53
2024-05-09T10:38:48.882Z,102815.28
2024-05-09T10:41:17.097Z,102816.41
2024-05-09T10:43:43.758Z,102810.88
2024-05-09T10:46:11.192Z,102799.50
2024-05-09T10:48:38.697Z,102794.47
2024-05-09T10:51:05.858Z,102788.25
2024-05-09T10:53:39.652Z,102793.03
2024-05-09T10:56:06.431Z,102789.44
2024-05-09T10:58:33.181Z,102789.56
2024-05-09T11:01:01.192Z,102784.41
2024-05-09T11:03:29.200Z,102785.78
2024-05-09T11:05:57.106Z,102788.41
2024-05-09T11:08:24.381Z,102782.59
2024-05-09T11:10:52.457Z,102784.19
2024-05-09T11:13:32.350Z,102775.94
2024-05-09T11:15:59.976Z,102782.09
2024-05-09T11:18:32.291Z,102784.94
2024-05-09T11:21:02.177Z,102777.00
2024-05-09T11:23:32.384Z,102776.22
2024-05-09T11:25:59.242Z,102760.38
2024-05-09T11:28:28.401Z,102763.97
2024-05-09T11:31:08.346Z,102764.72
2024-05-09T11:33:40.044Z,102765.81
2024-05-09T11:36:07.898Z,102761.88
2024-05-09T11:38:34.529Z,102757.81
2024-05-09T11:41:02.305Z,102755.19
2024-05-09T11:43:28.975Z,102747.44
2024-05-09T11:45:57.151Z,102751.69
2024-05-09T11:48:24.774Z,102754.97
2024-05-09T11:50:51.397Z,102751.03
2024-05-09T11:53:17.920Z,102745.47
2024-05-09T11:55:44.429Z,102747.22
2024-05-09T11:58:12.368Z,102746.47
2024-05-09T12:00:39.140Z,102747.34
2024-05-09T12:03:06.289Z,102740.03
2024-05-09T12:05:34.096Z,102745.69
2024-05-09T12:08:01.266Z,102741.66
2024-05-09T12:10:33.339Z,102738.94
2024-05-09T12:13:04.535Z,102742.09
2024-05-09T12:15:32.785Z,102737.16
2024-05-09T12:18:02.728Z,102726.56
2024-05-09T12:20:36.624Z,102728.19
2024-05-09T12:23:05.787Z,102725.34
2024-05-09T12:25:32.339Z,102727.00
2024-05-09T12:27:59.050Z,102729.53
2024-05-09T12:30:35.158Z,102722.84
2024-05-09T12:33:05.802Z,102719.34
2024-05-09T12:35:32.723Z,102720.22
2024-05-09T12:37:59.346Z,102712.38
2024-05-09T12:40:34.561Z,102714.84
2024-05-09T12:43:04.828Z,102713.34
2024-05-09T12:45:31.867Z,102711.22
2024-05-09T12:47:58.806Z,102708.75
2024-05-09T12:50:32.001Z,102706.78
2024-05-09T12:53:00.967Z,102706.44
2024-05-09T12:55:28.529Z,102701.31
2024-05-09T12:57:57.235Z,102701.78
2024-05-09T13:00:31.105Z,102707.66
2024-05-09T13:03:00.736Z,102701.09
2024-05-09T13:05:27.790Z,102701.09
2024-05-09T13:07:56.170Z,102699.13
2024-05-09T13:10:29.237Z,102697.06
2024-05-09T13:12:59.459Z,102694.28
2024-05-09T13:15:26.268Z,102688.41
2024-05-09T13:17:53.008Z,102694.78
2024-05-09T13:20:28.911Z,102697.94
2024-05-09T13:23:01.550Z,102701.09
2024-05-09T13:25:28.086Z,102686.69
2024-05-09T13:27:55.005Z,102687.31
2024-05-09T13:30:29.427Z,102691.59
2024-05-09T13:33:05.171Z,102686.09
2024-05-09T13:35:32.287Z,102693.41
2024-05-09T13:37:58.881Z,102691.19
2024-05-09T13:40:32.368Z,102694.25
2024-05-09T13:43:01.984Z,102692.94
2024-05-09T13:45:28.824Z,102696.53
2024-05-09T13:47:55.654Z,102696.84
2024-05-09T13:50:31.023Z,102694.72
2024-05-09T13:53:01.594Z,102696.03
2024-05-09T13:55:28.249Z,102691.88
2024-05-09T13:57:55.429Z,102698.88
2024-05-09T14:00:37.654Z,102688.94
2024-05-09T14:03:08.920Z,102687.97
2024-05-09T14:05:35.837Z,102688.06
2024-05-09T14:08:03.034Z,102687.97
2024-05-09T14:13:20.196Z,102682.56
2024-05-09T14:15:47.115Z,102681.78
2024-05-09T14:18:14.575Z,102676.56
2024-05-09T14:20:42.609Z,102675.03
2024-05-09T14:23:09.739Z,102678.41
2024-05-09T14:25:40.382Z,102674.47
2024-05-09T14:28:09.939Z,102675.25
2024-05-09T14:30:38.162Z,102669.03
2024-05-09T14:33:07.251Z,102665.53
2024-05-09T14:35:34.716Z,102663.13
2024-05-09T14:38:01.534Z,102653.19
2024-05-09T14:40:38.795Z,102654.53
2024-05-09T14:43:10.951Z,102655.19
2024-05-09T14:45:37.673Z,102658.13
2024-05-09T14:48:04.770Z,102646.53
2024-05-09T14:50:36.741Z,102652.91
2024-05-09T14:53:06.943Z,102637.03
2024-05-09T14:55:35.915Z,102642.88
2024-05-09T14:58:03.545Z,102637.81
2024-05-09T15:00:35.630Z,102633.97
2024-05-09T15:03:03.813Z,102634.28
2024-05-09T15:05:30.685Z,102629.66
2024-05-09T15:07:58.667Z,102629.91
2024-05-09T15:13:16.981Z,102620.88
2024-05-09T15:15:44.224Z,102624.81
2024-05-09T15:18:11.218Z,102621.38
2024-05-09T15:20:38.262Z,102609.88
2024-05-09T15:23:06.729Z,102615.28
2024-05-09T15:25:34.742Z,102609.66
2024-05-09T15:28:01.587Z,102606.06
2024-05-09T15:30:31.648Z,102597.69
2024-05-09T15:33:01.345Z,102598.25
2024-05-09T15:35:28.232Z,102592.34
2024-05-09T15:37:55.439Z,102587.88
2024-05-09T15:40:31.302Z,102591.38
2024-05-09T15:43:05.341Z,102595.00
2024-05-09T15:45:32.520Z,102592.81
2024-05-09T15:47:59.632Z,102589.44
2024-05-09T15:50:36.043Z,102586.84
2024-05-09T15:53:07.604Z,102588.72
2024-05-09T15:55:35.143Z,102582.47
2024-05-09T15:58:02.520Z,102583.84
2024-05-09T16:00:37.534Z,102582.72
2024-05-09T16:03:07.988Z,102579.19
2024-05-09T16:05:34.885Z,102579.59
2024-05-09T16:08:01.927Z,102571.13
2024-05-09T16:10:33.139Z,102572.31
2024-05-09T16:13:01.915Z,102572.91
2024-05-09T16:15:28.986Z,102578.84
2024-05-09T16:17:56.366Z,102576.63
2024-05-09T16:20:34.531Z,102572.91
2024-05-09T16:23:06.391Z,102562.09
2024-05-09T16:25:33.030Z,102568.19
2024-05-09T16:27:59.941Z,102568.63
2024-05-09T16:30:33.865Z,102566.16
2024-05-09T16:33:03.244Z,102556.75
2024-05-09T16:35:30.254Z,102558.75
2024-05-09T16:37:57.153Z,102550.84
2024-05-09T16:40:30.496Z,102549.41
2024-05-09T16:43:04.817Z,102553.56
2024-05-09T16:45:31.832Z,102543.09
2024-05-09T16:47:59.382Z,102547.94
2024-05-09T16:50:31.114Z,102544.31
2024-05-09T16:53:00.248Z,102541.09
2024-05-09T16:55:27.043Z,102541.97
2024-05-09T16:57:54.336Z,102549.31
2024-05-09T17:00:31.232Z,102546.91
2024-05-09T17:03:06.453Z,102555.00
2024-05-09T17:05:33.586Z,102548.34
2024-05-09T17:08:01.150Z,102552.06
2024-05-09T17:13:19.371Z,102548.44
2024-05-09T17:15:46.887Z,102553.81
2024-05-09T17:18:14.007Z,102542.44
2024-05-09T17:20:40.610Z,102556.19
2024-05-09T17:23:13.292Z,102546.91
2024-05-09T17:25:41.096Z,102547.66
2024-05-09T17:28:09.174Z,102546.81
2024-05-09T17:30:38.422Z,102554.81
2024-05-09T17:33:08.896Z,102550.31
2024-05-09T17:35:36.850Z,102544.88
2024-05-09T17:38:05.040Z,102541.34
2024-05-09T17:40:35.439Z,102538.19
2024-05-09T17:43:05.150Z,102544.69
2024-05-09T17:45:32.509Z,102544.53
2024-05-09T17:47:59.854Z,102543.44
2024-05-09T17:50:34.643Z,102537.31
2024-05-09T17:53:03.442Z,102544.47
2024-05-09T17:55:30.227Z,102540.72
2024-05-09T17:57:57.182Z,102537.72
2024-05-09T18:00:36.010Z,102535.38
2024-05-09T18:03:06.552Z,102540.84
2024-05-09T18:05:35.931Z,102541.81
2024-05-09T18:08:03.458Z,102548.66
2024-05-09T18:10:35.995Z,102546.69
2024-05-09T18:13:06.000Z,102550.13
2024-05-09T18:15:33.074Z,102547.88
2024-05-09T18:18:00.094Z,102550.97
2024-05-09T18:20:37.875Z,102554.88
2024-05-09T18:23:10.137Z,102544.84
2024-05-09T18:25:36.719Z,102554.47
2024-05-09T18:28:03.514Z,102547.09
2024-05-09T18:30:34.861Z,102549.22
2024-05-09T18:33:04.742Z,102544.03
2024-05-09T18:35:32.414Z,102545.88
2024-05-09T18:37:58.991Z,102549.84
2024-05-09T18:40:32.728Z,102554.50
2024-05-09T18:43:03.147Z,102541.19
2024-05-09T18:45:29.874Z,102545.06
2024-05-09T18:47:56.787Z,102547.78
2024-05-09T18:50:32.026Z,102552.44
2024-05-09T18:53:03.446Z,102549.72
2024-05-09T18:55:29.999Z,102562.53
2024-05-09T18:57:56.932Z,102565.34
2024-05-09T19:00:33.033Z,102570.00
2024-05-09T19:03:05.469Z,102561.06
2024-05-09T19:05:33.372Z,102556.66
2024-05-09T19:08:00.236Z,102553.44
2024-05-09T19:10:33.668Z,102552.66
2024-05-09T19:13:04.391Z,102560.22
2024-05-09T19:15:34.121Z,102564.09
2024-05-09T19:18:00.915Z,102564.97
2024-05-09T19:20:33.191Z,102566.13
2024-05-09T19:23:01.385Z,102564.63
2024-05-09T19:25:27.915Z,102572.94
2024-05-09T19:27:54.501Z,102570.41
2024-05-09T19:30:29.775Z,102567.88
2024-05-09T19:33:04.541Z,102568.75
2024-05-09T19:35:31.201Z,102570.78
2024-05-09T19:37:57.910Z,102566.47
2024-05-09T19:40:30.451Z,102566.84
2024-05-09T19:42:59.495Z,102569.84
2024-05-09T19:45:26.154Z,102573.75
2024-05-09T19:47:52.972Z,102568.94
2024-05-09T19:50:26.387Z,102572.00
2024-05-09T19:52:59.058Z,102564.09
2024-05-09T19:55:25.580Z,102574.25
2024-05-09T19:57:52.102Z,102575.53
2024-05-09T20:00:25.966Z,102568.88
2024-05-09T20:02:56.239Z,102575.28
2024-05-09T20:05:23.651Z,102570.28
2024-05-09T20:07:50.267Z,102572.63
2024-05-09T20:10:23.622Z,102576.69
2024-05-09T20:12:53.883Z,102578.44
2024-05-09T20:15:20.486Z,102578.03
2024-05-09T20:17:47.203Z,102585.16
2024-05-09T20:20:24.495Z,102572.84
2024-05-09T20:22:59.742Z,102581.94
2024-05-09T20:25:26.283Z,102583.31
2024-05-09T20:27:52.900Z,102582.94
2024-05-09T20:30:28.879Z,102585.94
2024-05-09T20:32:59.517Z,102593.22
2024-05-09T20:35:26.745Z,102592.44
2024-05-09T20:37:53.378Z,102591.56
2024-05-09T20:40:28.270Z,102596.25
2024-05-09T20:42:58.784Z,102595.63
2024-05-09T20:45:25.500Z,102592.44
2024-05-09T20:47:52.162Z,102591.94
2024-05-09T20:50:27.992Z,102596.16
2024-05-09T20:53:02.487Z,102599.25
2024-05-09T20:55:30.054Z,102601.94
2024-05-09T20:57:57.017Z,102594.22
2024-05-09T21:00:30.278Z,102597.44
2024-05-09T21:03:05.739Z,102595.75
2024-05-09T21:05:32.650Z,102596.22
2024-05-09T21:07:59.262Z,102605.78
2024-05-09T21:10:27.234Z,102598.91
2024-05-09T21:12:56.366Z,102604.47
2024-05-09T21:15:23.020Z,102598.41
2024-05-09T21:17:49.607Z,102598.69
2024-05-09T21:20:20.481Z,102599.66
2024-05-09T21:22:50.744Z,102597.13
2024-05-09T21:25:17.342Z,102590.28
2024-05-09T21:27:44.101Z,102591.91
2024-05-09T21:30:18.398Z,102592.66
2024-05-09T21:32:50.418Z,102590.03
2024-05-09T21:35:17.764Z,102591.25
2024-05-09T21:37:44.402Z,102595.78
2024-05-09T21:40:16.938Z,102594.03
2024-05-09T21:42:50.426Z,102592.34
2024-05-09T21:45:17.044Z,102593.44
2024-05-09T21:47:43.671Z,102603.59
2024-05-09T21:50:18.631Z,102606.22
2024-05-09T21:52:49.808Z,102599.78
2024-05-09T21:55:16.487Z,102601.84
2024-05-09T21:57:43.139Z,102599.06
2024-05-09T22:00:25.123Z,102594.59
2024-05-09T22:02:59.206Z,102594.19
2024-05-09T22:05:25.801Z,102593.59
2024-05-09T22:07:52.343Z,102586.16
2024-05-09T22:13:09.930Z,102597.47
2024-05-09T22:15:39.214Z,102600.59
2024-05-09T22:18:08.301Z,102589.03
2024-05-09T22:20:38.523Z,102594.28
2024-05-09T22:23:07.024Z,102589.91
2024-05-09T22:25:33.981Z,102588.97
2024-05-09T22:28:01.800Z,102596.19
2024-05-09T22:30:35.770Z,102596.19
2024-05-09T22:33:09.770Z,102600.59
2024-05-09T22:35:38.051Z,102597.13
2024-05-09T22:38:04.772Z,102593.94
2024-05-09T22:40:42.023Z,102601.38
2024-05-09T22:43:17.750Z,102599.91
2024-05-09T22:45:44.767Z,102590.97
2024-05-09T22:48:11.430Z,102598.78
2024-05-09T22:50:38.072Z,102594.72
2024-05-09T22:53:05.506Z,102596.75
2024-05-09T22:55:32.120Z,102597.75
2024-05-09T22:57:58.735Z,102600.13
2024-05-09T23:00:31.417Z,102592.91
2024-05-09T23:03:03.012Z,102597.56
2024-05-09T23:05:30.772Z,102595.81
2024-05-09T23:07:57.706Z,102597.56
2024-05-09T23:13:15.108Z,102602.16
2024-05-09T23:15:41.713Z,102594.25
2024-05-09T23:18:08.484Z,102605.25
2024-05-09T23:20:38.721Z,102596.31
2024-05-09T23:23:10.468Z,102597.19
2024-05-09T23:25:38.349Z,102596.72
2024-05-09T23:28:05.421Z,102594.59
2024-05-09T23:30:37.227Z,102594.94
2024-05-09T23:33:07.113Z,102595.81
2024-05-09T23:35:33.844Z,102589.38
2024-05-09T23:38:00.377Z,102588.63
2024-05-09T23:40:37.313Z,102589.50
2024-05-09T23:43:07.411Z,102583.25
2024-05-09T23:45:34.492Z,102577.72
2024-05-09T23:48:01.511Z,102578.75
2024-05-09T23:50:34.530Z,102587.03
2024-05-09T23:53:04.589Z,102580.00
2024-05-09T23:55:32.090Z,102579.50
2024-05-09T23:57:59.196Z,102586.03
